Time;durP1;ratioP1;P1;durP2;ratioP2;P2;SDS_P1;SDS_P2;PMS_P1;PMS_P2;Temp;Humidity;BMP_temperature;BMP_pressure;BME280_temperature;BME280_humidity;BME280_pressure;Samples;Min_cycle;Max_cycle;Signal;HPM_P1;HPM_P2
2024/01/25 00:01:48;;;;;;;45.80;9.00;;;;;;;6.98;100.00;100425.13;5028107;28;20029;-75
2024/01/25 00:04:14;;;;;;;41.57;8.50;;;;;;;7.10;100.00;100476.22;5027870;28;20072;-75
2024/01/25 00:06:39;;;;;;;54.33;8.67;;;;;;;7.02;100.00;100428.31;5013002;28;20079;-75
2024/01/25 00:09:04;;;;;;;37.07;8.13;;;;;;;7.03;100.00;100411.41;4995533;28;20025;-74
2024/01/25 00:11:31;;;;;;;36.57;7.27;;;;;;;7.07;100.00;100423.44;5033562;28;20668;-75
2024/01/25 00:13:57;;;;;;;43.58;7.90;;;;;;;7.04;100.00;100431.66;5029538;28;20279;-75
2024/01/25 00:16:22;;;;;;;38.35;8.07;;;;;;;7.02;100.00;100436.28;5020767;28;20033;-75
2024/01/25 00:18:48;;;;;;;28.90;7.23;;;;;;;7.07;100.00;100434.03;5027655;28;20040;-74
2024/01/25 00:21:13;;;;;;;48.47;6.90;;;;;;;7.11;100.00;100413.31;5006647;28;20092;-74
2024/01/25 00:23:38;;;;;;;29.93;6.43;;;;;;;7.11;100.00;100437.22;5014982;28;20626;-75
2024/01/25 00:26:04;;;;;;;40.30;8.23;;;;;;;7.03;100.00;100405.28;5009729;28;20132;-75
2024/01/25 00:28:29;;;;;;;41.07;9.63;;;;;;;7.01;100.00;100424.00;5030408;28;20080;-74
2024/01/25 00:30:55;;;;;;;52.38;7.75;;;;;;;7.08;100.00;100419.78;5014991;28;20040;-75
2024/01/25 00:33:20;;;;;;;32.28;5.95;;;;;;;7.09;100.00;100452.47;5027789;28;20115;-74
2024/01/25 00:35:46;;;;;;;40.23;7.57;;;;;;;7.06;100.00;100450.94;5041423;28;20028;-74
2024/01/25 00:38:11;;;;;;;44.13;7.90;;;;;;;7.00;100.00;100459.50;5035944;28;20071;-75
2024/01/25 00:40:37;;;;;;;35.65;7.70;;;;;;;6.92;100.00;100483.28;5023740;28;20028;-74
2024/01/25 00:43:03;;;;;;;36.97;7.53;;;;;;;6.87;100.00;100518.19;5008214;28;20025;-75
2024/01/25 00:45:29;;;;;;;48.63;7.07;;;;;;;6.95;100.00;100530.75;5022563;28;20151;-75
2024/01/25 00:47:54;;;;;;;48.15;9.52;;;;;;;6.79;100.00;100517.25;5014387;28;20116;-74
2024/01/25 00:50:21;;;;;;;35.15;7.20;;;;;;;6.91;100.00;100566.53;5027256;28;20025;-74
2024/01/25 00:52:53;;;;;;;35.92;6.93;;;;;;;6.82;100.00;100554.94;5038717;23;20454;-78
2024/01/25 00:55:18;;;;;;;40.55;7.03;;;;;;;6.89;100.00;100601.16;5006442;28;20474;-78
2024/01/25 00:57:44;;;;;;;55.40;9.68;;;;;;;6.87;100.00;100610.25;5001850;28;20031;-79
2024/01/25 01:00:10;;;;;;;53.20;8.00;;;;;;;6.88;100.00;100596.00;5012467;28;20170;-79
2024/01/25 01:02:39;;;;;;;36.17;8.27;;;;;;;6.87;100.00;100594.34;5021269;28;20033;-79
2024/01/25 01:05:06;;;;;;;36.40;8.40;;;;;;;6.90;100.00;100610.78;4996340;28;20029;-77
2024/01/25 01:07:32;;;;;;;39.58;7.50;;;;;;;6.86;100.00;100588.19;5013004;28;20022;-76
2024/01/25 01:09:57;;;;;;;51.30;9.02;;;;;;;6.84;100.00;100600.75;5029776;28;20033;-76
2024/01/25 01:12:22;;;;;;;47.03;9.80;;;;;;;6.94;100.00;100614.84;5031121;28;20115;-78
2024/01/25 01:14:48;;;;;;;44.53;6.90;;;;;;;6.93;100.00;100617.63;5012820;28;20037;-77
2024/01/25 01:17:15;;;;;;;41.20;7.13;;;;;;;6.99;100.00;100601.16;5031320;28;20325;-77
2024/01/25 01:19:40;;;;;;;45.53;9.57;;;;;;;6.91;100.00;100593.91;5012283;28;20075;-78
2024/01/25 01:22:05;;;;;;;41.50;9.43;;;;;;;6.84;100.00;100560.97;5029199;28;20034;-77
2024/01/25 01:24:31;;;;;;;46.60;9.00;;;;;;;6.87;100.00;100583.72;5024063;28;20782;-79
2024/01/25 01:26:56;;;;;;;39.77;7.93;;;;;;;6.87;100.00;100589.84;5023702;28;20407;-77
2024/01/25 01:29:21;;;;;;;36.57;8.30;;;;;;;6.87;100.00;100589.03;5029403;28;20037;-76
2024/01/25 01:31:47;;;;;;;44.60;9.27;;;;;;;6.92;100.00;100622.09;5012864;28;20053;-78
2024/01/25 01:34:13;;;;;;;49.93;8.37;;;;;;;6.85;100.00;100614.88;5012490;28;20674;-77
2024/01/25 01:36:39;;;;;;;57.50;7.40;;;;;;;6.95;100.00;100620.97;5012586;28;20036;-81
2024/01/25 01:39:05;;;;;;;57.53;9.07;;;;;;;6.87;100.00;100603.13;5014308;28;20025;-78
2024/01/25 01:41:31;;;;;;;49.95;8.45;;;;;;;6.94;100.00;100651.19;5009853;28;20029;-77
2024/01/25 01:43:56;;;;;;;48.63;7.05;;;;;;;6.96;100.00;100635.94;5033624;28;20036;-79
2024/01/25 01:46:37;;;;;;;42.03;8.77;;;;;;;6.86;100.00;100625.34;5004914;28;20026;-79
2024/01/25 01:49:04;;;;;;;46.25;7.47;;;;;;;6.73;100.00;100599.09;5011287;28;20233;-79
2024/01/25 01:51:31;;;;;;;49.53;8.23;;;;;;;6.79;100.00;100610.09;5013204;28;20116;-78
2024/01/25 01:53:57;;;;;;;48.00;10.10;;;;;;;6.82;100.00;100637.22;5029697;28;20081;-76
2024/01/25 01:56:26;;;;;;;48.53;8.20;;;;;;;6.84;100.00;100647.69;5022561;28;20080;-76
2024/01/25 01:58:53;;;;;;;42.00;7.32;;;;;;;6.74;100.00;100598.13;5030131;28;20072;-77
2024/01/25 02:01:20;;;;;;;45.33;7.22;;;;;;;6.76;100.00;100612.06;5026444;28;20029;-79
2024/01/25 02:03:45;;;;;;;42.70;7.97;;;;;;;6.87;100.00;100634.97;5013929;28;20021;-77
2024/01/25 02:06:11;;;;;;;42.03;8.20;;;;;;;6.74;100.00;100602.56;5009326;28;20030;-77
2024/01/25 02:08:36;;;;;;;42.25;9.02;;;;;;;6.75;100.00;100613.06;5011525;28;20508;-77
2024/01/25 02:11:02;;;;;;;43.17;8.07;;;;;;;6.83;100.00;100624.78;5030239;28;20040;-77
2024/01/25 02:13:27;;;;;;;43.03;7.43;;;;;;;6.86;100.00;100643.94;5024945;28;20037;-77
2024/01/25 02:15:53;;;;;;;43.53;7.63;;;;;;;6.86;100.00;100646.56;4996189;28;20844;-81
2024/01/25 02:18:18;;;;;;;31.00;6.07;;;;;;;6.85;100.00;100633.44;5020726;28;20061;-78
2024/01/25 02:20:43;;;;;;;39.08;7.05;;;;;;;6.84;100.00;100613.19;5029893;28;20283;-81
2024/01/25 02:23:09;;;;;;;46.83;6.27;;;;;;;6.93;100.00;100645.03;5034802;28;20523;-78
2024/01/25 02:25:34;;;;;;;38.83;7.27;;;;;;;6.85;100.00;100606.91;5009605;28;20477;-77
2024/01/25 02:27:59;;;;;;;31.13;6.93;;;;;;;6.83;100.00;100595.59;5026122;28;20272;-78
2024/01/25 02:30:25;;;;;;;41.57;7.50;;;;;;;6.88;100.00;100572.09;5028462;28;20033;-77
2024/01/25 02:32:50;;;;;;;40.10;8.37;;;;;;;6.79;100.00;100546.44;5010946;28;20060;-77
2024/01/25 02:35:16;;;;;;;38.22;6.28;;;;;;;6.82;100.00;100575.34;5032855;28;20107;-77
2024/01/25 02:37:41;;;;;;;50.20;9.43;;;;;;;6.76;100.00;100558.16;5024969;28;20032;-79
2024/01/25 02:40:07;;;;;;;33.93;7.50;;;;;;;6.81;100.00;100547.94;5006627;28;20033;-76
2024/01/25 02:42:32;;;;;;;44.13;9.27;;;;;;;6.87;100.00;100558.00;5010889;28;20094;-76
2024/01/25 02:44:58;;;;;;;38.23;6.53;;;;;;;6.75;100.00;100538.75;5016882;28;20033;-78
2024/01/25 02:47:23;;;;;;;44.78;6.93;;;;;;;6.89;100.00;100597.69;5025655;28;20025;-82
2024/01/25 02:49:49;;;;;;;29.07;7.70;;;;;;;6.90;100.00;100626.72;5041619;28;20132;-78
2024/01/25 02:52:14;;;;;;;34.83;6.90;;;;;;;6.88;100.00;100617.22;5033076;28;20274;-78
2024/01/25 02:54:39;;;;;;;48.77;8.20;;;;;;;6.80;100.00;100627.72;5017021;28;20072;-76
2024/01/25 02:57:05;;;;;;;45.57;6.97;;;;;;;6.80;100.00;100612.63;5035188;28;20032;-77
2024/01/25 02:59:31;;;;;;;33.33;6.18;;;;;;;6.74;100.00;100605.22;5033127;28;20288;-77
2024/01/25 03:01:57;;;;;;;41.75;6.90;;;;;;;6.78;100.00;100624.38;5016230;28;20036;-76
2024/01/25 03:04:22;;;;;;;41.55;7.90;;;;;;;6.85;100.00;100638.75;5031558;28;20029;-79
2024/01/25 03:06:47;;;;;;;39.97;7.20;;;;;;;6.82;100.00;100593.94;5034294;28;20032;-77
2024/01/25 03:09:13;;;;;;;42.70;7.07;;;;;;;6.90;100.00;100608.13;5024405;28;20033;-77
2024/01/25 03:11:38;;;;;;;32.67;6.43;;;;;;;6.83;100.00;100598.25;5016672;28;20034;-82
2024/01/25 03:14:04;;;;;;;38.67;7.10;;;;;;;6.81;100.00;100584.28;5015370;28;20025;-80
2024/01/25 03:16:29;;;;;;;35.92;6.28;;;;;;;6.88;100.00;100570.31;5014586;28;20065;-77
2024/01/25 03:18:54;;;;;;;43.00;7.60;;;;;;;6.78;100.00;100581.91;5016204;28;20040;-78
2024/01/25 03:21:20;;;;;;;35.57;6.30;;;;;;;6.92;100.00;100618.63;5031061;28;20048;-76
2024/01/25 03:23:45;;;;;;;32.90;6.33;;;;;;;6.88;100.00;100601.31;5036697;28;20075;-76
2024/01/25 03:26:10;;;;;;;36.00;6.90;;;;;;;6.86;100.00;100621.84;5016285;28;20311;-78
2024/01/25 03:28:37;;;;;;;48.67;8.37;;;;;;;6.84;100.00;100622.00;5022089;28;20032;-77
2024/01/25 03:31:02;;;;;;;;;;;;;;;6.89;100.00;100627.72;5018187;28;20483;-76
2024/01/25 03:33:28;;;;;;;32.38;6.00;;;;;;;6.72;100.00;100618.66;5032478;28;20023;-77
2024/01/25 03:35:54;;;;;;;;;;;;;;;6.91;100.00;100640.84;5032966;28;20104;-79
2024/01/25 03:38:19;;;;;;;34.20;5.95;;;;;;;6.74;100.00;100555.69;5028772;28;19952;-79
2024/01/25 03:40:44;;;;;;;36.25;5.82;;;;;;;6.90;100.00;100580.78;5016193;28;20115;-81
2024/01/25 03:43:10;;;;;;;35.53;6.13;;;;;;;6.87;100.00;100539.44;5029188;28;20041;-78
2024/01/25 03:45:35;;;;;;;31.73;5.73;;;;;;;6.87;100.00;100544.75;5035860;28;20017;-76
2024/01/25 03:48:00;;;;;;;37.80;6.67;;;;;;;6.78;100.00;100519.06;4993551;28;20030;-78
2024/01/25 03:50:27;;;;;;;32.13;7.73;;;;;;;6.80;100.00;100532.19;5026942;28;20032;-78
2024/01/25 03:52:52;;;;;;;32.17;6.22;;;;;;;6.80;100.00;100556.91;5025284;28;20021;-78
2024/01/25 03:55:18;;;;;;;34.27;6.17;;;;;;;6.93;100.00;100561.91;5028507;28;20467;-77
2024/01/25 03:57:44;;;;;;;25.17;5.10;;;;;;;6.84;100.00;100517.66;5027993;28;20056;-77
2024/01/25 04:00:10;;;;;;;27.15;6.60;;;;;;;6.84;100.00;100501.75;4992805;28;20275;-77
2024/01/25 04:02:36;;;;;;;41.20;8.35;;;;;;;6.91;100.00;100518.75;5024011;28;20033;-77
2024/01/25 04:05:02;;;;;;;37.75;8.15;;;;;;;6.97;100.00;100564.13;5035725;28;20465;-78
2024/01/25 04:07:27;;;;;;;41.67;6.20;;;;;;;6.92;100.00;100573.50;5009586;28;20045;-79
2024/01/25 04:09:53;;;;;;;38.03;5.50;;;;;;;6.83;100.00;100585.81;5028953;28;20511;-78
2024/01/25 04:12:18;;;;;;;30.77;5.63;;;;;;;6.73;100.00;100569.91;5026963;28;20405;-79
2024/01/25 04:14:43;;;;;;;34.47;5.00;;;;;;;6.96;100.00;100627.97;5011918;28;20295;-79
2024/01/25 04:17:09;;;;;;;34.88;7.18;;;;;;;6.93;100.00;100585.78;5011902;28;20029;-78
2024/01/25 04:19:35;;;;;;;42.10;8.53;;;;;;;6.95;100.00;100642.22;5025357;28;20652;-78
2024/01/25 04:22:01;;;;;;;37.50;8.65;;;;;;;6.89;100.00;100621.56;5000847;28;20029;-77
2024/01/25 04:24:26;;;;;;;39.37;5.53;;;;;;;6.74;100.00;100639.72;5011915;28;20039;-78
2024/01/25 04:26:52;;;;;;;39.10;6.83;;;;;;;6.85;100.00;100689.16;5033117;28;20322;-78
2024/01/25 04:29:17;;;;;;;38.80;5.47;;;;;;;6.82;100.00;100676.19;5015203;28;20033;-76
2024/01/25 04:31:44;;;;;;;27.60;7.93;;;;;;;6.86;100.00;100709.41;5015432;28;20040;-76
2024/01/25 04:34:09;;;;;;;38.83;7.53;;;;;;;6.81;100.00;100714.31;5039684;28;20169;-76
2024/01/25 04:36:34;;;;;;;32.90;8.23;;;;;;;6.80;100.00;100720.59;5006656;28;20129;-77
2024/01/25 04:39:00;;;;;;;36.57;6.60;;;;;;;6.89;100.00;100747.13;5010175;28;20073;-77
2024/01/25 04:41:25;;;;;;;49.30;8.87;;;;;;;6.83;100.00;100722.97;5010432;28;20036;-77
2024/01/25 04:43:50;;;;;;;42.07;6.00;;;;;;;6.83;100.00;100712.34;5024984;28;20080;-77
2024/01/25 04:46:16;;;;;;;47.63;8.83;;;;;;;6.81;100.00;100746.16;5034724;28;20060;-76
2024/01/25 04:48:41;;;;;;;45.83;9.83;;;;;;;6.86;100.00;100757.19;5026698;28;20025;-77
2024/01/25 04:51:06;;;;;;;30.40;7.23;;;;;;;6.75;100.00;100759.00;5010436;28;20047;-76
2024/01/25 04:53:32;;;;;;;38.83;7.83;;;;;;;6.79;100.00;100764.88;5010244;28;20155;-78
2024/01/25 04:55:59;;;;;;;31.87;6.77;;;;;;;6.74;100.00;100762.63;5025503;28;20295;-77
2024/01/25 04:58:25;;;;;;;29.90;6.45;;;;;;;6.73;100.00;100768.06;5028097;28;20032;-77
2024/01/25 05:00:50;;;;;;;36.42;7.25;;;;;;;6.70;100.00;100769.19;5010219;28;20029;-77
2024/01/25 05:03:15;;;;;;;42.55;7.38;;;;;;;6.74;100.00;100821.00;5009729;28;20037;-79
2024/01/25 05:05:41;;;;;;;53.90;9.23;;;;;;;6.76;100.00;100834.97;5027027;28;20654;-78
2024/01/25 05:08:06;;;;;;;44.57;7.93;;;;;;;6.70;100.00;100838.16;5009515;28;20033;-78
2024/01/25 05:10:32;;;;;;;38.47;6.63;;;;;;;6.69;100.00;100807.28;5012243;28;20025;-77
2024/01/25 05:12:57;;;;;;;38.92;6.93;;;;;;;6.69;100.00;100791.38;5027412;28;20033;-78
2024/01/25 05:15:22;;;;;;;31.57;6.67;;;;;;;6.59;100.00;100757.84;5010443;28;20032;-78
2024/01/25 05:17:48;;;;;;;36.23;6.43;;;;;;;6.67;100.00;100789.81;5014479;28;20838;-77
2024/01/25 05:20:15;;;;;;;36.70;6.40;;;;;;;6.85;100.00;100853.72;5020324;28;20068;-78
2024/01/25 05:22:41;;;;;;;32.85;7.47;;;;;;;6.71;100.00;100785.94;5021684;28;20037;-78
2024/01/25 05:25:08;;;;;;;48.17;8.20;;;;;;;6.67;100.00;100806.59;5023854;28;20036;-78
2024/01/25 05:27:34;;;;;;;33.33;6.40;;;;;;;6.69;100.00;100804.63;5009756;28;20029;-76
2024/01/25 05:29:59;;;;;;;37.65;6.32;;;;;;;6.75;100.00;100801.44;5009708;28;20442;-77
2024/01/25 05:32:25;;;;;;;44.07;7.67;;;;;;;6.59;100.00;100766.63;5009280;28;20042;-77
2024/01/25 05:34:50;;;;;;;40.43;8.67;;;;;;;6.76;100.00;100813.72;5008336;28;20296;-78
2024/01/25 05:37:15;;;;;;;35.20;6.53;;;;;;;6.67;100.00;100816.34;5021461;28;20484;-77
2024/01/25 05:39:41;;;;;;;36.13;7.67;;;;;;;6.68;100.00;100816.22;5019080;28;20037;-78
2024/01/25 05:42:06;;;;;;;30.70;6.37;;;;;;;6.64;100.00;100830.75;5008519;28;20087;-77
2024/01/25 05:44:31;;;;;;;42.80;7.90;;;;;;;6.69;100.00;100844.44;5040531;28;20025;-77
2024/01/25 05:46:57;;;;;;;36.73;6.17;;;;;;;6.69;100.00;100817.91;5024958;28;20288;-76
2024/01/25 05:49:22;;;;;;;35.93;7.33;;;;;;;6.68;100.00;100802.97;5005106;28;20022;-77
2024/01/25 05:51:47;;;;;;;35.80;6.00;;;;;;;6.72;100.00;100846.84;5011898;28;20038;-77
2024/01/25 05:54:13;;;;;;;39.33;6.77;;;;;;;6.61;100.00;100846.94;5008300;28;20464;-77
2024/01/25 05:56:38;;;;;;;40.47;6.10;;;;;;;6.66;100.00;100849.19;5033056;28;20292;-77
2024/01/25 05:59:03;;;;;;;48.03;7.47;;;;;;;6.68;100.00;100842.78;5027317;28;20060;-76
2024/01/25 06:01:29;;;;;;;39.30;7.27;;;;;;;6.58;100.00;100852.50;5010627;28;20045;-77
2024/01/25 06:03:54;;;;;;;35.37;5.17;;;;;;;6.55;100.00;100879.28;5025170;28;20025;-77
2024/01/25 06:06:20;;;;;;;25.60;4.57;;;;;;;6.49;100.00;100879.84;5008130;28;21083;-76
2024/01/25 06:08:45;;;;;;;32.70;5.97;;;;;;;6.64;100.00;100915.63;5008586;28;20024;-77
2024/01/25 06:11:11;;;;;;;46.13;7.50;;;;;;;6.60;100.00;100910.72;5006940;28;20038;-77
2024/01/25 06:13:36;;;;;;;50.55;9.25;;;;;;;6.66;100.00;100942.03;4993994;28;20280;-78
2024/01/25 06:16:01;;;;;;;30.53;6.17;;;;;;;6.51;100.00;100917.69;5008280;28;20045;-79
2024/01/25 06:18:27;;;;;;;32.33;5.00;;;;;;;6.53;100.00;100940.47;5009855;28;20061;-77
2024/01/25 06:20:52;;;;;;;34.97;6.75;;;;;;;6.50;100.00;100946.00;5009813;28;20030;-77
2024/01/25 06:23:18;;;;;;;28.50;4.90;;;;;;;6.63;100.00;100944.97;5009128;28;20075;-78
2024/01/25 06:25:43;;;;;;;39.67;6.03;;;;;;;6.55;100.00;100945.59;5009367;28;20030;-79
2024/01/25 06:28:09;;;;;;;33.47;5.95;;;;;;;6.46;100.00;100917.22;5006962;28;20073;-77
2024/01/25 06:30:34;;;;;;;28.10;4.47;;;;;;;6.51;100.00;100938.91;5022762;28;20057;-78
2024/01/25 06:32:59;;;;;;;36.33;7.03;;;;;;;6.46;100.00;100941.09;5028899;28;20116;-77
2024/01/25 06:35:25;;;;;;;47.07;6.27;;;;;;;6.57;100.00;100959.59;5026420;28;20037;-76
2024/01/25 06:37:50;;;;;;;39.20;5.57;;;;;;;6.50;100.00;100971.69;5035506;28;20036;-78
2024/01/25 06:40:16;;;;;;;34.13;6.53;;;;;;;6.52;100.00;100978.53;5029392;28;20097;-78
2024/01/25 06:42:42;;;;;;;39.03;4.50;;;;;;;6.42;100.00;100974.16;5012701;28;20038;-77
2024/01/25 06:45:08;;;;;;;28.10;5.72;;;;;;;6.54;100.00;101031.47;5020353;28;20112;-79
2024/01/25 06:47:33;;;;;;;28.77;6.00;;;;;;;6.50;100.00;101007.00;5028791;28;20112;-81
2024/01/25 06:49:58;;;;;;;33.00;4.93;;;;;;;6.52;100.00;101028.13;5020877;28;20037;-80
2024/01/25 06:52:24;;;;;;;40.47;7.43;;;;;;;6.49;100.00;101010.66;5011083;28;20749;-76
2024/01/25 06:54:49;;;;;;;32.07;7.10;;;;;;;6.49;100.00;101025.72;5024255;28;20071;-77
2024/01/25 06:57:14;;;;;;;36.83;6.23;;;;;;;6.49;100.00;101010.66;5007505;28;20045;-77
2024/01/25 06:59:40;;;;;;;45.15;6.53;;;;;;;6.55;100.00;101027.84;5008063;28;20029;-77
2024/01/25 07:02:06;;;;;;;22.17;4.67;;;;;;;6.50;100.00;100979.66;5024432;28;20045;-78
2024/01/25 07:04:31;;;;;;;38.75;5.65;;;;;;;6.43;100.00;100958.09;5016517;28;20026;-77
2024/01/25 07:06:56;;;;;;;30.03;4.77;;;;;;;6.57;100.00;100969.38;5024153;28;20729;-76
2024/01/25 07:09:22;;;;;;;38.60;5.83;;;;;;;6.61;100.00;100989.34;5023009;28;20103;-78
2024/01/25 07:11:47;;;;;;;29.07;4.90;;;;;;;6.53;100.00;100943.09;5018580;28;20048;-79
2024/01/25 07:14:12;;;;;;;30.87;5.73;;;;;;;6.55;100.00;100969.47;5020972;28;20042;-78
2024/01/25 07:16:38;;;;;;;29.67;7.90;;;;;;;6.60;100.00;100983.19;5000852;28;20049;-77
2024/01/25 07:19:04;;;;;;;31.85;6.15;;;;;;;6.52;100.00;100953.84;5009588;28;20040;-76
2024/01/25 07:21:32;;;;;;;26.75;4.45;;;;;;;6.63;100.00;101004.19;4991927;28;20022;-77
2024/01/25 07:23:59;;;;;;;33.67;6.22;;;;;;;6.58;100.00;100966.59;5003385;28;20469;-78
2024/01/25 07:26:25;;;;;;;36.58;5.13;;;;;;;6.62;100.00;100986.56;5026837;28;20034;-77
2024/01/25 07:28:53;;;;;;;34.55;6.00;;;;;;;6.67;100.00;101008.25;5014543;28;20025;-78
2024/01/25 07:31:20;;;;;;;27.13;4.10;;;;;;;6.58;100.00;101030.25;5009007;28;20069;-77
2024/01/25 07:33:45;;;;;;;37.72;6.15;;;;;;;6.56;100.00;101026.88;5005450;28;20033;-77
2024/01/25 07:36:10;;;;;;;41.30;5.13;;;;;;;6.55;100.00;101036.66;5026303;28;20025;-77
2024/01/25 07:38:36;;;;;;;39.00;5.80;;;;;;;6.56;100.00;101029.53;5007844;28;20032;-79
2024/01/25 07:41:01;;;;;;;25.20;4.60;;;;;;;6.65;100.00;101051.78;5007423;28;20557;-76
2024/01/25 07:43:26;;;;;;;33.13;5.40;;;;;;;6.61;100.00;101034.47;4993320;28;20472;-77
2024/01/25 07:45:52;;;;;;;37.73;5.63;;;;;;;6.59;100.00;101044.34;5027369;28;20033;-77
2024/01/25 07:48:17;;;;;;;31.00;5.33;;;;;;;6.53;100.00;101035.94;5022715;28;20037;-77
2024/01/25 07:50:42;;;;;;;23.67;4.17;;;;;;;6.60;100.00;101073.38;5010907;28;20330;-77
2024/01/25 07:53:08;;;;;;;23.43;5.23;;;;;;;6.56;100.00;101061.38;5026895;28;20033;-76
2024/01/25 07:55:33;;;;;;;29.73;6.05;;;;;;;6.49;100.00;101028.38;5026706;28;20488;-78
2024/01/25 07:57:59;;;;;;;29.97;4.70;;;;;;;6.58;100.00;101048.81;5026916;28;20518;-78
2024/01/25 08:00:24;;;;;;;32.53;4.17;;;;;;;6.47;100.00;101040.94;5027146;28;20103;-77
2024/01/25 08:02:49;;;;;;;25.80;4.90;;;;;;;6.54;100.00;101068.63;5024933;28;20033;-77
2024/01/25 08:05:15;;;;;;;38.23;5.73;;;;;;;6.49;100.00;101086.72;5010321;28;20718;-78
2024/01/25 08:07:40;;;;;;;31.10;5.70;;;;;;;6.44;100.00;101104.81;5027153;28;20029;-78
2024/01/25 08:10:06;;;;;;;30.43;4.83;;;;;;;6.42;100.00;101104.13;5023794;28;20037;-76
2024/01/25 08:12:31;;;;;;;38.13;5.65;;;;;;;6.61;100.00;101162.66;5023557;28;20526;-78
2024/01/25 08:14:57;;;;;;;30.03;4.10;;;;;;;6.48;100.00;101114.22;5014269;28;20614;-77
2024/01/25 08:17:22;;;;;;;31.60;4.73;;;;;;;6.59;100.00;101130.09;5018502;28;20041;-77
2024/01/25 08:19:47;;;;;;;27.87;6.13;;;;;;;6.59;100.00;101098.25;5010931;28;20064;-78
2024/01/25 08:22:13;;;;;;;40.77;6.13;;;;;;;6.54;100.00;101095.16;5027298;28;20042;-77
2024/01/25 08:24:39;;;;;;;27.88;4.03;;;;;;;6.69;100.00;101112.41;5027174;28;20037;-77
2024/01/25 08:27:07;;;;;;;29.77;5.00;;;;;;;6.78;100.00;101086.09;5025565;28;20124;-75
2024/01/25 08:29:32;;;;;;;25.83;4.63;;;;;;;6.59;100.00;101047.00;5029461;28;20091;-79
2024/01/25 08:31:57;;;;;;;31.03;4.80;;;;;;;6.66;100.00;101088.81;4995582;28;20120;-77
2024/01/25 08:34:23;;;;;;;30.17;4.73;;;;;;;6.50;100.00;101045.97;5019520;28;20037;-77
2024/01/25 08:36:48;;;;;;;32.37;5.97;;;;;;;6.70;100.00;101122.09;5021664;28;20026;-76
2024/01/25 08:39:14;;;;;;;33.97;5.73;;;;;;;6.76;100.00;101132.16;5015852;28;20042;-78
2024/01/25 08:41:39;;;;;;;20.95;5.00;;;;;;;6.74;100.00;101120.00;5019391;28;20038;-78
2024/01/25 08:44:05;;;;;;;31.27;6.57;;;;;;;6.71;100.00;101110.47;5026558;28;20037;-77
2024/01/25 08:46:30;;;;;;;24.90;3.63;;;;;;;6.93;100.00;101145.84;5018189;28;20145;-77
2024/01/25 08:48:55;;;;;;;27.33;4.73;;;;;;;7.01;100.00;101119.50;5011904;28;20033;-76
2024/01/25 08:51:20;;;;;;;24.77;4.13;;;;;;;7.31;100.00;101092.13;5026000;28;20038;-78
2024/01/25 08:53:46;;;;;;;22.27;5.70;;;;;;;7.50;100.00;101066.63;5022975;28;20037;-77
2024/01/25 08:56:11;;;;;;;31.35;5.32;;;;;;;7.42;100.00;101008.81;5023215;28;20038;-78
2024/01/25 08:58:37;;;;;;;31.73;4.73;;;;;;;7.54;100.00;101004.28;5026065;28;20111;-79
2024/01/25 09:01:03;;;;;;;25.00;5.73;;;;;;;7.58;100.00;100977.25;4993487;28;20029;-77
2024/01/25 09:03:28;;;;;;;29.92;4.32;;;;;;;7.48;100.00;100946.38;5023208;28;20041;-77
2024/01/25 09:05:53;;;;;;;33.00;4.37;;;;;;;7.33;100.00;100953.91;5004625;28;20026;-76
2024/01/25 09:08:19;;;;;;;35.80;5.57;;;;;;;7.31;100.00;100996.50;5000184;28;20033;-77
2024/01/25 09:10:44;;;;;;;33.00;8.23;;;;;;;7.36;100.00;101025.31;5020098;28;20051;-78
2024/01/25 09:13:10;;;;;;;34.90;5.30;;;;;;;7.08;100.00;100969.31;5009495;28;20040;-77
2024/01/25 09:15:35;;;;;;;25.38;5.47;;;;;;;7.21;100.00;101018.69;5027210;28;20032;-76
2024/01/25 09:18:00;;;;;;;28.20;6.45;;;;;;;7.08;100.00;101050.78;5021461;28;20550;-78
2024/01/25 09:20:26;;;;;;;24.13;5.33;;;;;;;7.16;100.00;101122.66;5024955;28;20651;-78
2024/01/25 09:22:55;;;;;;;27.40;5.03;;;;;;;7.32;100.00;101159.38;5025865;28;20425;-77
2024/01/25 09:25:20;;;;;;;29.42;5.18;;;;;;;7.21;100.00;101116.94;5023942;28;20260;-77
2024/01/25 09:27:45;;;;;;;32.05;5.60;;;;;;;7.05;100.00;101097.03;5025497;28;20037;-78
2024/01/25 09:30:11;;;;;;;35.37;4.70;;;;;;;7.25;100.00;101169.66;5009186;28;20037;-76
2024/01/25 09:32:37;;;;;;;40.28;6.85;;;;;;;7.19;100.00;101120.59;5009304;28;20034;-77
2024/01/25 09:35:02;;;;;;;37.37;5.00;;;;;;;7.20;100.00;101118.75;5022085;28;20748;-76
2024/01/25 09:37:28;;;;;;;28.92;5.15;;;;;;;7.30;100.00;101068.34;5008759;28;20091;-77
2024/01/25 09:39:53;;;;;;;33.30;5.90;;;;;;;7.54;100.00;101068.03;5010162;28;20408;-77
2024/01/25 09:42:19;;;;;;;26.90;6.17;;;;;;;7.33;100.00;101009.66;5021508;28;20087;-77
2024/01/25 09:44:44;;;;;;;29.48;4.63;;;;;;;7.47;100.00;101006.63;5002355;28;20033;-78
2024/01/25 09:47:10;;;;;;;42.33;6.88;;;;;;;7.70;100.00;100998.41;5008882;28;20613;-78
2024/01/25 09:49:36;;;;;;;;;;;;;;;7.74;100.00;100974.06;5009355;28;20057;-77
2024/01/25 09:52:05;;;;;;;30.95;5.80;;;;;;;7.89;100.00;100939.09;5009911;28;19960;-79
2024/01/25 09:54:35;;;;;;;32.40;5.32;;;;;;;7.87;100.00;100851.53;5008440;28;20057;-77
2024/01/25 09:57:06;;;;;;;25.33;5.38;;;;;;;7.82;100.00;100811.25;5008687;28;20037;-77
2024/01/25 09:59:32;;;;;;;39.92;5.55;;;;;;;7.66;100.00;100781.78;5024920;28;20033;-78
2024/01/25 10:01:59;;;;;;;31.57;6.73;;;;;;;7.55;100.00;100809.34;5010538;28;20025;-79
2024/01/25 10:04:24;;;;;;;23.40;6.15;;;;;;;7.42;100.00;100822.88;5024856;28;20048;-77
2024/01/25 10:06:50;;;;;;;26.98;4.22;;;;;;;7.52;100.00;100892.81;5025378;28;20021;-77
2024/01/25 10:09:15;;;;;;;37.97;5.87;;;;;;;7.63;100.00;100960.06;5025001;28;20041;-79
2024/01/25 10:11:41;;;;;;;26.53;5.00;;;;;;;7.65;100.00;100881.06;5026532;28;20577;-77
2024/01/25 10:14:08;;;;;;;18.30;5.35;;;;;;;8.41;100.00;100935.16;5025132;28;20037;-77
2024/01/25 10:16:34;;;;;;;26.55;5.63;;;;;;;8.47;100.00;100821.97;5025128;28;20034;-78
2024/01/25 10:19:01;;;;;;;;;;;;;;;8.87;100.00;100775.53;5025302;28;20029;-78
2024/01/25 10:21:28;;;;;;;22.23;3.92;;;;;;;8.87;100.00;100685.00;5024258;28;19948;-77
2024/01/25 10:23:57;;;;;;;22.25;4.30;;;;;;;9.52;100.00;100647.34;5024726;28;20037;-78
2024/01/25 10:26:26;;;;;;;20.23;4.10;;;;;;;9.77;100.00;100522.19;5026389;28;20041;-77
2024/01/25 10:28:53;;;;;;;23.30;4.60;;;;;;;9.36;100.00;100343.53;5019080;28;20457;-77
2024/01/25 10:31:18;;;;;;;24.35;4.53;;;;;;;10.38;100.00;100491.59;5024900;28;20045;-77
2024/01/25 10:33:46;;;;;;;20.20;4.80;;;;;;;10.51;100.00;100149.44;5008698;28;20029;-77
2024/01/25 10:36:13;;;;;;;21.05;4.40;;;;;;;10.84;100.00;100222.19;5024895;28;20036;-77
2024/01/25 10:38:40;;;;;;;21.92;4.45;;;;;;;11.07;100.00;100095.78;5018197;28;20521;-78
2024/01/25 10:41:05;;;;;;;19.10;4.57;;;;;;;10.49;100.00;99997.53;5008398;28;20029;-78
2024/01/25 10:43:31;;;;;;;29.83;5.57;;;;;;;10.10;100.00;99954.94;5005728;28;20040;-78
2024/01/25 10:45:58;;;;;;;21.13;5.25;;;;;;;9.88;100.00;100136.09;5019759;28;20527;-77
2024/01/25 10:48:28;;;;;;;22.20;3.97;;;;;;;10.57;100.00;100248.34;5023298;28;20447;-77
2024/01/25 10:50:59;;;;;;;24.08;5.38;;;;;;;11.07;100.00;100146.53;5013238;28;20038;-77
2024/01/25 10:53:24;;;;;;;26.95;4.43;;;;;;;11.07;100.00;99975.56;5007966;28;20061;-77
2024/01/25 10:55:50;;;;;;;29.20;5.05;;;;;;;11.47;100.00;99950.22;5025393;28;20464;-78
2024/01/25 10:58:16;;;;;;;19.42;4.20;;;;;;;10.38;100.00;99805.00;4993776;28;20393;-78
2024/01/25 11:00:49;;;;;;;24.65;4.13;;;;;;;11.52;100.00;100040.50;5029352;28;20033;-79
2024/01/25 11:03:14;;;;;;;25.70;4.25;;;;;;;10.53;100.00;99594.97;5029566;28;20514;-78
2024/01/25 11:05:39;;;;;;;30.77;5.07;;;;;;;10.87;100.00;99944.09;5029625;28;20049;-78
2024/01/25 11:08:18;;;;;;;24.70;4.68;;;;;;;11.45;100.00;99989.66;5013368;28;20477;-78
2024/01/25 11:10:50;;;;;;;26.90;4.80;;;;;;;11.75;100.00;99885.28;5030793;28;20037;-78